createdAt,value
2022-12-13T00:00:54.428Z,40.83
2022-12-13T00:03:42.084Z,42.73
2022-12-13T00:06:31.129Z,36.25
2022-12-13T00:09:21.521Z,35.60
2022-12-13T00:12:10.781Z,40.42
2022-12-13T00:15:01.284Z,34.67
2022-12-13T00:17:48.627Z,35.85
2022-12-13T00:20:40.370Z,37.80
2022-12-13T00:23:30.250Z,33.72
2022-12-13T00:26:22.498Z,28.58
2022-12-13T00:29:12.682Z,40.60
2022-12-13T00:32:01.374Z,37.95
2022-12-13T00:34:49.156Z,28.83
2022-12-13T00:37:38.472Z,40.47
2022-12-13T00:40:29.952Z,39.37
2022-12-13T00:43:18.910Z,36.20
2022-12-13T00:46:19.046Z,43.88
2022-12-13T00:49:07.458Z,41.78
2022-12-13T00:51:54.555Z,41.53
2022-12-13T00:54:42.284Z,36.67
2022-12-13T00:57:29.586Z,40.78
2022-12-13T01:00:21.575Z,38.20
2022-12-13T01:03:22.119Z,33.08
2022-12-13T01:06:18.328Z,44.25
2022-12-13T01:09:08.665Z,33.70
2022-12-13T01:12:03.093Z,36.10
2022-12-13T01:14:55.924Z,37.60
2022-12-13T01:17:49.196Z,31.98
2022-12-13T01:20:37.410Z,40.15
2022-12-13T01:23:26.748Z,39.20
2022-12-13T01:29:21.110Z,38.00
2022-12-13T01:32:10.153Z,37.85
2022-12-13T01:34:58.442Z,45.08
2022-12-13T01:37:46.315Z,35.55
2022-12-13T01:40:38.696Z,37.75
2022-12-13T01:43:55.092Z,39.28
2022-12-13T01:46:42.222Z,43.17
2022-12-13T01:49:29.893Z,36.00
2022-12-13T01:52:17.860Z,38.55
2022-12-13T01:55:07.856Z,31.50
2022-12-13T01:57:58.233Z,36.67
2022-12-13T02:00:46.592Z,34.05
2022-12-13T02:03:34.937Z,32.47
2022-12-13T02:06:40.689Z,36.15
2022-12-13T02:09:28.659Z,34.35
2022-12-13T02:12:16.159Z,35.35
2022-12-13T02:15:11.684Z,27.48
2022-12-13T02:18:10.923Z,38.50
2022-12-13T02:21:05.373Z,39.83
2022-12-13T02:24:08.802Z,37.20
2022-12-13T02:27:15.660Z,39.00
2022-12-13T02:30:52.196Z,34.60
2022-12-13T02:33:42.216Z,31.75
2022-12-13T02:36:46.567Z,33.97
2022-12-13T02:39:40.033Z,39.85
2022-12-13T02:42:37.412Z,36.08
2022-12-13T02:45:34.644Z,34.58
2022-12-13T02:48:32.535Z,32.03
2022-12-13T02:51:21.805Z,33.88
2022-12-13T02:54:09.341Z,34.72
2022-12-13T02:56:58.607Z,32.80
2022-12-13T02:59:46.637Z,31.85
2022-12-13T03:02:43.333Z,39.65
2022-12-13T03:05:49.587Z,33.95
2022-12-13T03:08:42.680Z,35.03
2022-12-13T03:11:51.261Z,35.05
2022-12-13T03:14:48.065Z,36.28
2022-12-13T03:17:41.519Z,35.53
2022-12-13T03:20:29.923Z,43.15
2022-12-13T03:23:19.209Z,37.58
2022-12-13T03:26:11.205Z,37.78
2022-12-13T03:28:59.360Z,41.60
2022-12-13T03:31:47.171Z,47.97
2022-12-13T03:34:43.581Z,37.17
2022-12-13T03:37:33.867Z,36.70
2022-12-13T03:40:21.939Z,48.40
2022-12-13T03:43:09.322Z,33.45
2022-12-13T03:45:56.677Z,49.03
2022-12-13T03:48:43.927Z,36.15
2022-12-13T03:51:31.125Z,35.83
2022-12-13T03:54:19.007Z,35.50
2022-12-13T03:57:06.235Z,37.55
2022-12-13T03:59:53.402Z,40.78
2022-12-13T04:02:41.079Z,40.63
2022-12-13T04:05:28.800Z,39.75
2022-12-13T04:08:22.475Z,44.80
2022-12-13T04:11:45.214Z,35.35
2022-12-13T04:14:32.421Z,33.80
2022-12-13T04:17:19.940Z,41.92
2022-12-13T04:20:07.683Z,39.75
2022-12-13T04:22:55.395Z,45.60
2022-12-13T04:25:44.624Z,35.53
2022-12-13T04:28:31.829Z,40.85
2022-12-13T04:31:19.045Z,46.83
2022-12-13T04:34:06.394Z,43.83
2022-12-13T04:36:54.002Z,49.88
2022-12-13T04:39:41.170Z,40.10
2022-12-13T04:42:35.767Z,72.35
2022-12-13T04:45:23.225Z,56.85
2022-12-13T04:48:10.501Z,53.72
2022-12-13T04:50:57.716Z,50.67
2022-12-13T04:53:48.460Z,43.05
2022-12-13T04:56:35.665Z,46.22
2022-12-13T04:59:22.857Z,47.97
2022-12-13T05:02:11.073Z,48.35
2022-12-13T05:04:58.792Z,46.38
2022-12-13T05:07:46.366Z,46.53
2022-12-13T05:10:38.044Z,43.15
2022-12-13T05:13:25.647Z,38.50
2022-12-13T05:16:13.207Z,42.17
2022-12-13T05:19:00.387Z,42.20
2022-12-13T05:21:48.600Z,41.75
2022-12-13T05:24:35.806Z,47.83
2022-12-13T05:27:23.681Z,37.38
2022-12-13T05:30:14.090Z,40.58
2022-12-13T05:33:01.264Z,48.50
2022-12-13T05:35:48.389Z,42.88
2022-12-13T05:38:36.311Z,43.78
2022-12-13T05:41:25.111Z,39.45
2022-12-13T05:44:13.504Z,44.25
2022-12-13T05:47:03.978Z,38.42
2022-12-13T05:49:52.176Z,47.20
2022-12-13T05:52:40.101Z,44.60
2022-12-13T05:55:27.284Z,41.97
2022-12-13T05:58:16.658Z,36.40
2022-12-13T06:01:12.996Z,38.47
2022-12-13T06:04:00.855Z,45.72
2022-12-13T06:06:48.302Z,41.17
2022-12-13T06:09:39.869Z,47.88
2022-12-13T06:12:31.411Z,35.47
2022-12-13T06:15:22.223Z,41.22
2022-12-13T06:18:10.133Z,40.10
2022-12-13T06:20:58.627Z,47.17
2022-12-13T06:23:45.840Z,39.17
2022-12-13T06:26:33.960Z,40.00
2022-12-13T06:29:25.495Z,43.53
2022-12-13T06:32:13.907Z,39.78
2022-12-13T06:35:01.159Z,46.80
2022-12-13T06:38:11.891Z,45.85
2022-12-13T06:41:17.000Z,44.08
2022-12-13T06:44:05.310Z,46.13
2022-12-13T06:46:52.468Z,47.08
2022-12-13T06:49:58.427Z,51.13
2022-12-13T06:52:53.252Z,47.25
2022-12-13T06:55:40.490Z,52.50
2022-12-13T06:58:27.660Z,60.00
2022-12-13T07:01:24.116Z,50.08
2022-12-13T07:04:29.519Z,44.42
2022-12-13T07:07:18.813Z,48.05
2022-12-13T07:10:06.384Z,40.28
2022-12-13T07:13:02.798Z,42.63
2022-12-13T07:15:50.974Z,42.45
2022-12-13T07:18:38.427Z,53.05
2022-12-13T07:21:25.955Z,46.10
2022-12-13T07:24:13.492Z,40.88
2022-12-13T07:27:00.646Z,46.00
2022-12-13T07:29:47.864Z,42.30
2022-12-13T07:32:35.114Z,46.25
2022-12-13T07:35:22.375Z,47.83
2022-12-13T07:38:11.686Z,45.55
2022-12-13T07:40:59.041Z,42.50
2022-12-13T07:43:46.982Z,41.20
2022-12-13T07:46:34.736Z,39.92
2022-12-13T07:49:22.446Z,37.90
2022-12-13T07:52:12.516Z,45.15
2022-12-13T07:54:59.720Z,45.60
2022-12-13T07:57:48.502Z,45.70
2022-12-13T08:00:37.393Z,53.60
2022-12-13T08:03:26.452Z,44.03
2022-12-13T08:06:14.428Z,48.28
2022-12-13T08:09:01.879Z,41.28
2022-12-13T08:11:49.544Z,39.28
2022-12-13T08:14:36.756Z,42.53
2022-12-13T08:17:28.219Z,34.63
2022-12-13T08:20:22.353Z,34.20
2022-12-13T08:23:10.843Z,38.13
2022-12-13T08:25:58.486Z,38.58
2022-12-13T08:28:46.859Z,40.55
2022-12-13T08:31:34.261Z,38.55
2022-12-13T08:34:21.481Z,42.33
2022-12-13T08:37:09.563Z,46.70
2022-12-13T08:39:56.727Z,43.00
2022-12-13T08:42:43.896Z,42.17
2022-12-13T08:45:34.229Z,46.38
2022-12-13T08:48:22.179Z,42.90
2022-12-13T08:51:12.929Z,45.15
2022-12-13T08:54:10.783Z,48.90
2022-12-13T08:56:58.593Z,50.53
2022-12-13T08:59:46.231Z,43.50
2022-12-13T09:02:38.034Z,40.53
2022-12-13T09:05:33.580Z,45.92
2022-12-13T09:08:23.928Z,41.38
2022-12-13T09:11:32.935Z,48.30
2022-12-13T09:14:23.662Z,36.87
2022-12-13T09:17:14.921Z,40.08
2022-12-13T09:20:28.716Z,52.78
2022-12-13T09:23:23.462Z,55.70
2022-12-13T09:26:16.288Z,47.77
2022-12-13T09:29:11.436Z,47.00
2022-12-13T09:31:58.900Z,47.00
2022-12-13T09:34:47.574Z,41.17
2022-12-13T09:37:34.807Z,51.13
2022-12-13T09:40:27.452Z,46.63
2022-12-13T09:43:31.285Z,40.80
2022-12-13T09:46:34.787Z,56.37
2022-12-13T09:49:52.100Z,46.33
2022-12-13T09:52:43.230Z,48.87
2022-12-13T09:55:41.619Z,46.00
2022-12-13T09:58:35.000Z,45.73
2022-12-13T10:01:23.846Z,49.90
2022-12-13T10:04:19.040Z,51.03
2022-12-13T10:07:17.406Z,46.90
2022-12-13T10:10:05.239Z,43.77
2022-12-13T10:13:10.468Z,49.60
2022-12-13T10:16:04.755Z,46.10
2022-12-13T10:18:52.321Z,51.23
2022-12-13T10:21:43.376Z,52.47
2022-12-13T10:25:03.569Z,48.20
2022-12-13T10:27:51.214Z,51.03
2022-12-13T10:30:46.696Z,48.87
2022-12-13T10:33:37.216Z,45.40
2022-12-13T10:36:35.961Z,49.73
2022-12-13T10:39:41.547Z,48.87
2022-12-13T10:42:33.861Z,44.90
2022-12-13T10:45:23.486Z,41.50
2022-12-13T10:48:22.616Z,42.67
2022-12-13T10:51:12.993Z,47.83
2022-12-13T10:54:00.803Z,49.70
2022-12-13T10:56:53.992Z,51.50
2022-12-13T10:59:41.421Z,47.10
2022-12-13T11:02:38.004Z,48.70
2022-12-13T11:05:31.368Z,49.40
2022-12-13T11:08:27.111Z,44.70
2022-12-13T11:11:18.539Z,44.70
2022-12-13T11:14:05.861Z,46.87
2022-12-13T11:16:57.722Z,53.00
2022-12-13T11:19:48.278Z,38.37
2022-12-13T11:22:38.657Z,59.33
2022-12-13T11:25:30.150Z,44.23
2022-12-13T11:28:42.920Z,49.47
2022-12-13T11:31:58.934Z,41.70
2022-12-13T11:35:13.615Z,41.37
2022-12-13T11:38:12.656Z,50.10
2022-12-13T11:41:31.712Z,43.93
2022-12-13T11:44:48.501Z,43.70
2022-12-13T11:47:58.462Z,47.23
2022-12-13T11:50:49.154Z,46.23
2022-12-13T11:53:44.369Z,44.73
2022-12-13T11:56:38.985Z,42.43
2022-12-13T11:59:42.499Z,38.07
2022-12-13T12:02:40.341Z,46.60
2022-12-13T12:05:32.914Z,45.30
2022-12-13T12:08:37.329Z,41.40
2022-12-13T12:11:34.425Z,41.63
2022-12-13T12:14:35.891Z,43.23
2022-12-13T12:17:25.226Z,45.40
2022-12-13T12:20:23.445Z,41.47
2022-12-13T12:23:31.904Z,42.00
2022-12-13T12:26:36.997Z,45.80
2022-12-13T12:29:39.226Z,42.07
2022-12-13T12:32:34.365Z,47.13
2022-12-13T12:35:28.189Z,39.97
2022-12-13T12:38:29.580Z,41.87
2022-12-13T12:41:20.558Z,40.43
2022-12-13T12:44:30.741Z,49.27
2022-12-13T12:48:46.289Z,41.37
2022-12-13T12:51:13.654Z,50.00
2022-12-13T12:54:42.639Z,43.33
2022-12-13T12:57:39.917Z,40.30
2022-12-13T13:00:31.124Z,41.67
2022-12-13T13:03:31.544Z,42.10
2022-12-13T13:06:22.215Z,37.70
2022-12-13T13:09:12.953Z,44.07
2022-12-13T13:12:29.536Z,55.70
2022-12-13T13:15:40.863Z,41.63
2022-12-13T13:18:48.188Z,43.70
2022-12-13T13:21:44.956Z,50.00
2022-12-13T13:24:34.717Z,45.77
2022-12-13T13:27:32.941Z,45.17
2022-12-13T13:30:20.145Z,50.23
2022-12-13T13:33:43.265Z,43.53
2022-12-13T13:36:39.239Z,48.13
2022-12-13T13:39:29.484Z,46.97
2022-12-13T13:42:21.651Z,46.03
2022-12-13T13:45:19.128Z,51.03
2022-12-13T13:48:37.020Z,54.70
2022-12-13T13:52:16.825Z,51.03
2022-12-13T13:55:15.448Z,50.70
2022-12-13T13:58:21.737Z,45.67
2022-12-13T14:02:01.077Z,59.97
2022-12-13T14:05:03.373Z,46.13
2022-12-13T14:08:20.324Z,52.63
2022-12-13T14:11:21.641Z,116.57
2022-12-13T14:14:27.363Z,72.73
2022-12-13T14:17:45.481Z,64.93
2022-12-13T14:20:47.601Z,61.17
2022-12-13T14:23:48.945Z,54.50
2022-12-13T14:27:02.463Z,67.37
2022-12-13T14:29:57.786Z,70.23
2022-12-13T14:32:47.637Z,60.00
2022-12-13T14:35:34.777Z,62.33
2022-12-13T14:38:31.045Z,83.53
2022-12-13T14:41:19.775Z,50.13
2022-12-13T14:44:09.766Z,65.03
2022-12-13T14:47:00.766Z,60.33
2022-12-13T14:49:53.914Z,64.97
2022-12-13T14:52:41.303Z,71.50
2022-12-13T14:55:33.914Z,147.83
2022-12-13T14:58:22.179Z,67.43
2022-12-13T15:01:32.244Z,70.90
2022-12-13T15:04:27.485Z,74.67
2022-12-13T15:07:50.105Z,73.80
2022-12-13T15:10:37.689Z,72.13
2022-12-13T15:13:42.855Z,72.33
2022-12-13T15:16:30.189Z,66.30
2022-12-13T15:19:30.760Z,66.67
2022-12-13T15:22:20.558Z,77.93
2022-12-13T15:25:13.692Z,50.73
2022-12-13T15:28:01.297Z,62.07
2022-12-13T15:30:49.350Z,82.70
2022-12-13T15:33:42.548Z,75.50
2022-12-13T15:36:38.836Z,119.33
2022-12-13T15:39:26.908Z,78.70
2022-12-13T15:42:32.245Z,103.27
2022-12-13T15:45:30.400Z,74.57
2022-12-13T15:48:22.045Z,70.10
2022-12-13T15:51:13.047Z,68.17
2022-12-13T15:54:21.914Z,47.73
2022-12-13T15:57:29.412Z,55.30
2022-12-13T16:00:31.062Z,77.20
2022-12-13T16:03:22.654Z,54.27
2022-12-13T16:06:18.054Z,52.13
2022-12-13T16:09:07.929Z,46.17
2022-12-13T16:12:06.875Z,45.60
2022-12-13T16:15:29.092Z,49.20
2022-12-13T16:18:21.010Z,55.40
2022-12-13T16:21:14.585Z,45.97
2022-12-13T16:24:01.902Z,53.53
2022-12-13T16:26:49.304Z,49.77
2022-12-13T16:29:36.630Z,56.13
2022-12-13T16:32:23.878Z,52.80
2022-12-13T16:35:11.173Z,51.40
2022-12-13T16:37:59.157Z,43.23
2022-12-13T16:40:49.717Z,56.13
2022-12-13T16:43:48.008Z,47.53
2022-12-13T16:47:18.214Z,49.60
2022-12-13T16:49:42.706Z,55.40
2022-12-13T16:52:29.853Z,63.17
2022-12-13T16:55:17.214Z,51.47
2022-12-13T16:58:11.904Z,40.93
2022-12-13T17:01:00.102Z,46.57
2022-12-13T17:03:47.960Z,48.97
2022-12-13T17:06:35.090Z,52.23
2022-12-13T17:09:23.807Z,51.10
2022-12-13T17:12:11.098Z,48.03
2022-12-13T17:15:15.168Z,48.57
2022-12-13T17:18:02.446Z,40.43
2022-12-13T17:20:58.861Z,48.30
2022-12-13T17:24:12.664Z,44.77
2022-12-13T17:27:00.100Z,58.10
2022-12-13T17:29:50.316Z,46.90
2022-12-13T17:32:37.508Z,44.23
2022-12-13T17:35:27.198Z,43.83
2022-12-13T17:38:14.392Z,45.77
2022-12-13T17:41:02.134Z,44.37
2022-12-13T17:43:49.698Z,42.90
2022-12-13T17:46:37.019Z,47.33
2022-12-13T17:49:25.521Z,46.87
2022-12-13T17:52:13.002Z,57.57
2022-12-13T17:55:01.219Z,38.40
2022-12-13T17:57:48.333Z,41.97
2022-12-13T18:00:37.560Z,40.67
2022-12-13T18:03:25.763Z,39.60
2022-12-13T18:06:13.247Z,47.93
2022-12-13T18:09:00.825Z,32.73
2022-12-13T18:11:48.360Z,39.87
2022-12-13T18:14:38.813Z,34.37
2022-12-13T18:17:46.615Z,37.73
2022-12-13T18:20:35.887Z,34.30
2022-12-13T18:23:23.480Z,38.97
2022-12-13T18:26:14.289Z,35.00
2022-12-13T18:29:01.965Z,35.87
2022-12-13T18:31:49.675Z,37.63
2022-12-13T18:34:36.878Z,46.47
2022-12-13T18:37:24.396Z,38.10
2022-12-13T18:40:11.679Z,35.53
2022-12-13T18:42:59.228Z,36.60
2022-12-13T18:45:46.780Z,35.10
2022-12-13T18:48:34.548Z,35.73
2022-12-13T18:51:24.071Z,34.57
2022-12-13T18:54:11.347Z,34.33
2022-12-13T18:56:58.972Z,38.73
2022-12-13T18:59:54.277Z,30.60
2022-12-13T19:02:42.673Z,39.70
2022-12-13T19:05:30.398Z,34.60
2022-12-13T19:08:17.552Z,36.07
2022-12-13T19:11:05.838Z,33.63
2022-12-13T19:13:53.363Z,34.10
2022-12-13T19:16:41.031Z,34.33
2022-12-13T19:19:28.258Z,32.73
2022-12-13T19:22:16.001Z,36.03
2022-12-13T19:25:04.662Z,40.40
2022-12-13T19:27:56.648Z,34.33
2022-12-13T19:30:46.208Z,40.03
2022-12-13T19:33:33.936Z,36.60
2022-12-13T19:36:21.134Z,37.90
2022-12-13T19:39:10.657Z,39.13
2022-12-13T19:41:58.858Z,39.13
2022-12-13T19:44:46.091Z,43.70
2022-12-13T19:47:34.233Z,32.80
2022-12-13T19:50:21.829Z,35.00
2022-12-13T19:53:11.711Z,31.93
2022-12-13T19:55:59.032Z,30.37
2022-12-13T19:58:48.771Z,31.67
2022-12-13T20:01:35.914Z,35.13
2022-12-13T20:04:23.128Z,44.20
2022-12-13T20:07:11.678Z,32.03
2022-12-13T20:09:59.258Z,37.03
2022-12-13T20:12:50.178Z,45.10
2022-12-13T20:15:38.352Z,44.03
2022-12-13T20:18:28.454Z,32.83
2022-12-13T20:21:15.952Z,34.53
2022-12-13T20:24:03.404Z,38.30
2022-12-13T20:26:50.650Z,36.60
2022-12-13T20:29:38.504Z,52.40
2022-12-13T20:32:26.292Z,57.50
2022-12-13T20:35:14.146Z,44.03
2022-12-13T20:38:03.349Z,41.10
2022-12-13T20:40:50.496Z,33.77
2022-12-13T20:43:37.874Z,33.07
2022-12-13T20:46:26.902Z,37.83
2022-12-13T20:49:14.161Z,37.47
2022-12-13T20:52:01.399Z,45.10
2022-12-13T20:54:48.861Z,35.67
2022-12-13T20:57:36.078Z,47.83
2022-12-13T21:00:23.232Z,38.23
2022-12-13T21:03:10.582Z,32.10
2022-12-13T21:05:57.792Z,34.67
2022-12-13T21:09:00.169Z,39.43
2022-12-13T21:11:49.767Z,45.17
2022-12-13T21:14:37.378Z,39.97
2022-12-13T21:17:24.905Z,43.63
2022-12-13T21:20:12.130Z,37.30
2022-12-13T21:22:59.588Z,34.40
2022-12-13T21:25:48.087Z,34.40
2022-12-13T21:28:35.673Z,36.23
2022-12-13T21:31:23.926Z,30.83
2022-12-13T21:34:12.077Z,29.90
2022-12-13T21:36:59.468Z,38.53
2022-12-13T21:39:47.055Z,27.63
2022-12-13T21:42:34.352Z,33.40
2022-12-13T21:45:22.988Z,29.70
2022-12-13T21:48:11.716Z,30.63
2022-12-13T21:50:59.244Z,31.77
2022-12-13T21:53:48.095Z,35.13
2022-12-13T21:56:54.389Z,29.03
2022-12-13T21:59:41.521Z,30.70
2022-12-13T22:02:29.769Z,33.57
2022-12-13T22:05:17.345Z,34.00
2022-12-13T22:08:06.484Z,29.87
2022-12-13T22:11:17.761Z,26.80
2022-12-13T22:14:08.283Z,33.23
2022-12-13T22:16:56.693Z,32.43
2022-12-13T22:19:44.411Z,32.07
2022-12-13T22:22:38.874Z,34.27
2022-12-13T22:25:27.248Z,35.30
2022-12-13T22:28:15.797Z,28.50
2022-12-13T22:31:03.530Z,32.37
2022-12-13T22:33:50.639Z,28.80
2022-12-13T22:36:39.780Z,30.77
2022-12-13T22:39:27.891Z,39.30
2022-12-13T22:42:17.049Z,42.43
2022-12-13T22:45:06.572Z,31.90
2022-12-13T22:47:54.857Z,30.73
2022-12-13T22:50:42.692Z,30.57
2022-12-13T22:53:31.221Z,33.97
2022-12-13T22:56:21.863Z,31.03
2022-12-13T22:59:09.751Z,26.10
2022-12-13T23:02:02.696Z,33.13
2022-12-13T23:04:51.261Z,30.70
2022-12-13T23:07:39.380Z,26.17
2022-12-13T23:10:47.003Z,35.67
2022-12-13T23:13:34.648Z,28.53
2022-12-13T23:16:25.200Z,27.20
2022-12-13T23:19:41.032Z,28.50
2022-12-13T23:22:27.170Z,31.60
2022-12-13T23:25:15.878Z,29.63
2022-12-13T23:28:04.401Z,33.40
2022-12-13T23:34:01.032Z,21.83
2022-12-13T23:36:49.049Z,28.73
2022-12-13T23:39:36.854Z,29.63
2022-12-13T23:42:25.541Z,30.03
2022-12-13T23:45:13.089Z,31.57
2022-12-13T23:48:00.891Z,26.87
2022-12-13T23:50:48.062Z,32.40
2022-12-13T23:53:37.121Z,30.30
2022-12-13T23:56:24.908Z,26.80
2022-12-13T23:59:13.124Z,31.77
